x

9449880 - Friday Harbor, Wa (frdw1) Weather Station

4:36 - Mon 26th Sep 2016 All times are PDT. -7 hours from GMT.

  • Wind
  • Sea Temp 51°f
  • Air Temp 62°f
  • Sea Pressure 1016.9mb
  • 9449880 - Friday Harbor, Wa
  • 9449880 - Friday Harbor, Wa

More Historic Weather Station data

Upgrade to MSW Pro to gain access to the past 30 days of data for over 8000 Wavebouys and Weather Stations around the globe.

Join Pro

Comparision Forecast

View Surf forecast
   
lun. 09/26 4:36  -  1 mph 1016.9mb 51f 62f
4:30  -  1 mph 1016.9mb 51f 62f
4:24 2 3 mph 1017mb 51f 60f
4:18  -  2 mph 1017mb 51f 59f
4:12 3 5 mph 1017mb 51f 58f
4:06 1 2 mph 1017mb 51f 60f
4:00  -  2 mph 1017mb 51f 62f
3:36 3
mph
1017.1mb 51f 63f
3:30 2 3 mph 1017.1mb 51f 62f
3:24  -  1 mph 1017.2mb 51f 64f
3:18  -  mph 1017.2mb 51f 64f
3:12  -  mph 1017.2mb 51f 64f
3:06  -  1 mph 1017.3mb 51f 64f
3:00  -  1 mph 1017.2mb 51f 64f
2:36 6 7 mph 1017.3mb 51f 65f
2:30 6 7 mph 1017.4mb 51f 65f
2:24 7 8 mph 1017.5mb 51f 65f
2:18 7
mph
1017.6mb 51f 65f
2:12 6
mph
1017.6mb 51f 64f
2:06 5 6 mph 1017.7mb 51f 64f
2:00 5 7 mph 1017.8mb 51f 63f
1:36 7 9 mph 1018.3mb 51f 63f
1:30 3 9 mph 1018.4mb 51f 63f
1:24 2 8 mph 1018.4mb 51f 63f
1:18 3 7 mph 1018.5mb 51f 63f
1:12 5 8 mph 1018.5mb 51f 62f
1:06 3 7 mph 1018.6mb 51f 62f
1:00 6 9 mph 1018.4mb 51f 62f
12:36 7 10 mph 1018.7mb 51f 61f
12:30 7 10 mph 1018.7mb 51f 61f
12:24 7 9 mph 1018.8mb 51f 61f
12:18 6 10 mph 1018.9mb 51f 61f
12:12 5 9 mph 1018.9mb 51f 61f
12:06 5 9 mph 1018.9mb 51f 61f
12:00 6 11 mph 1018.9mb 51f 62f
11:36 3 5 mph 1018.8mb 52f 61f
11:30 2 3 mph 1019mb 52f 61f
11:24 3 6 mph 1018.9mb 52f 60f
11:18 6
mph
1019mb 52f 60f
11:12 6
mph
1019.1mb 52f 60f
11:06 6 7 mph 1019.2mb 52f 60f
11:00 6 8 mph 1019.3mb 52f 60f
10:36 5 8 mph 1019.6mb 52f 60f
10:30 5 8 mph 1019.7mb 52f 60f
10:24 3 7 mph 1019.7mb 52f 60f
10:18 3 6 mph 1019.8mb 52f 59f
10:12 5 6 mph 1019.8mb 52f 59f
10:06 6 7 mph 1019.9mb 52f 59f
10:00 6 7 mph 1020mb 52f 59f
9:36 2 7 mph 1020.1mb 52f 59f
9:30 3 6 mph 1020.3mb 52f 59f
9:24 2 6 mph 1020.4mb 52f 60f
9:18 3 6 mph 1020.4mb 52f 59f
9:12 2 6 mph 1020.5mb 51f 59f
9:06 2 6 mph 1020.5mb 51f 59f
9:00 2 5 mph 1020.4mb 51f 59f
8:36 1 6 mph 1020.6mb 51f 58f
8:30 1 6 mph 1020.7mb 51f 58f
8:24 3 6 mph 1020.8mb 51f 57f
8:18 3 5 mph 1020.8mb 51f 57f
8:12 2 6 mph 1020.8mb 51f 57f
8:06  -  3 mph 1020.9mb 51f 57f
8:00 1 5 mph 1020.9mb 51f 57f
7:36 2 6 mph 1021mb 51f 55f
7:30 2 5 mph 1021mb 51f 55f
7:24  -  3 mph 1020.9mb 51f 55f
7:18 1 5 mph 1020.9mb 51f 55f
7:12 1 5 mph 1020.8mb 51f 55f
7:06 1 3 mph 1020.9mb 51f 55f
7:00 1 3 mph 1021mb 51f 55f
6:36 3 7 mph 1021mb 51f 55f
6:30 1 5 mph 1021.1mb 51f 55f
6:24 1 5 mph 1021.2mb 51f 55f
6:18 1 3 mph 1021.4mb 51f 55f
6:12 1 3 mph 1021.5mb 51f 55f
6:06 2 6 mph 1021.5mb 51f 54f
6:00 1 3 mph 1021.6mb 51f 54f
5:36 2 5 mph 1021.6mb 51f 54f
5:30 2 5 mph 1021.6mb 51f 55f
5:24 1 6 mph 1021.6mb 51f 55f
5:18 2 6 mph 1021.6mb 52f 55f
5:12 3 6 mph 1021.7mb 52f 55f
5:06 3 7 mph 1021.8mb 52f 55f
5:00 3 9 mph 1021.8mb 52f 55f
4:36 3 8 mph 1021.8mb 52f 56f
4:30 2 6 mph 1021.8mb 52f 56f
4:24 2 8 mph 1021.8mb 52f 56f
4:18 3 6 mph 1021.8mb 52f 56f
4:12 2 8 mph 1021.8mb 52f 56f
4:06 3 7 mph 1021.9mb 52f 56f
4:00 3 7 mph 1022mb 52f 56f
3:36 5 9 mph 1022.5mb 52f 56f
3:30 3 8 mph 1022.5mb 52f 56f
3:24 3 9 mph 1022.8mb 52f 56f
3:18 5 7 mph 1022.8mb 52f 56f
3:12 5 9 mph 1023mb 52f 56f
3:06 5 8 mph 1023mb 52f 56f
3:00 5 9 mph 1023.1mb 52f 56f
2:36 5 8 mph 1023.4mb 52f 56f
2:30 6 9 mph 1023.5mb 52f 56f
2:24 5 7 mph 1023.5mb 52f 56f
2:18 3 8 mph 1023.7mb 52f 56f
2:12 5 9 mph 1023.7mb 52f 56f
2:06 3 9 mph 1023.8mb 52f 56f
2:00 5 9 mph 1023.9mb 52f 56f
1:36 3 6 mph 1024.1mb 52f 56f
1:30 3 6 mph 1024.2mb 52f 57f
1:24 2 8 mph 1024.3mb 52f 57f
1:18 3 8 mph 1024.3mb 52f 57f
1:12 3 7 mph 1024.3mb 52f 57f
1:06 3 13 mph 1024.3mb 52f 58f
1:00 3 7 mph 1024.3mb 52f 58f
12:36 3 8 mph 1024.5mb 52f 58f
12:30 3 7 mph 1024.5mb 52f 58f
12:24 3 7 mph 1024.6mb 52f 58f
12:18 3 10 mph 1024.6mb 52f 58f
12:12 5 7 mph 1024.5mb 52f 58f
12:06 3 7 mph 1024.6mb 52f 58f
12:00 2 7 mph 1024.6mb 52f 58f
dim. 09/25 11:36 3 7 mph 1024.9mb 52f 58f
11:30 3 7 mph 1025mb 52f 58f
11:24 3 8 mph 1025.1mb 52f 58f
11:18 5 8 mph 1025.1mb 52f 58f
11:12 3 7 mph 1025.2mb 52f 58f
11:06 3 8 mph 1025.4mb 52f 58f
11:00 5 7 mph 1025.4mb 52f 58f
10:36 1 5 mph 1025.5mb 52f 58f
10:30 3 7 mph 1025.5mb 52f 58f
10:24 1 5 mph 1025.5mb 52f 59f
10:18 1 5 mph 1025.6mb 52f 59f
10:12  -  3 mph 1025.6mb 52f 59f
10:06 1 8 mph 1025.6mb 52f 59f
10:00 2 6 mph 1025.6mb 52f 59f
9:36  -  5 mph 1025.7mb 52f 59f
9:30 2 7 mph 1025.6mb 52f 59f
9:24 1 7 mph 1025.7mb 52f 59f
9:18 2 7 mph 1025.7mb 52f 59f
9:12 1 7 mph 1025.8mb 52f 59f
9:06 2 8 mph 1025.9mb 52f 59f
9:00 2 6 mph 1026mb 52f 59f
8:36 3 7 mph 1026.1mb 52f 60f
8:30 3 10 mph 1026.1mb 52f 60f
8:24 2 6 mph 1026.1mb 52f 60f
8:18 2 7 mph 1026.2mb 52f 60f
8:12 3 9 mph 1026.2mb 52f 60f
8:06 2 9 mph 1026.2mb 52f 60f
8:00 2 7 mph 1026.2mb 52f 61f
7:36  -  5 mph 1026.4mb 52f 61f
7:30 2 5 mph 1026.3mb 52f 61f
7:24 2 8 mph 1026.5mb 52f 61f
7:18 2 6 mph 1026.5mb 52f 61f
7:12 2 6 mph 1026.6mb 52f 61f
7:06 2 5 mph 1026.6mb 52f 61f
7:00 2 6 mph 1026.6mb 52f 61f
6:36 1 3 mph 1026.9mb 52f 62f
6:30 1 6 mph 1027mb 52f 62f
6:24 2 5 mph 1027.1mb 52f 62f
6:18 3 7 mph 1027.1mb 52f 62f
6:12 1 5 mph 1027.2mb 52f 62f
6:06 1 6 mph 1027.2mb 51f 62f
6:00 1 5 mph 1027.4mb 51f 62f
5:36 2 6 mph 1027.7mb 51f 61f
5:30 2 8 mph 1027.9mb 51f 61f
5:24 3 7 mph 1027.9mb 51f 62f
5:18 3 6 mph 1027.9mb 51f 62f
5:12 5 8 mph 1028mb 51f 62f
5:06 3 8 mph 1028.1mb 51f 63f
5:00 2 7 mph 1028mb 51f 63f
4:54 2 5 mph 1028mb 51f 64f
4:48 3 8 mph 1028.2mb 51f 63f
4:36 2 6 mph 1028.2mb 51f 63f
4:30 2 6 mph 1028.3mb 51f 64f
4:24 3 6 mph 1028.3mb 51f 64f
4:18 3 6 mph 1028.3mb 51f 64f
4:12 2 6 mph 1028.3mb 51f 64f
4:06 2 5 mph 1028.4mb 51f 65f
4:00 2 5 mph 1028.4mb 51f 65f
3:36 3 6 mph 1028.7mb 51f 64f
3:30 5 6 mph 1028.9mb 51f 64f
3:24 5 7 mph 1029.1mb 51f 64f
3:18 5 6 mph 1029.1mb 51f 64f
3:12 3 6 mph 1029.1mb 51f 64f
3:06 5 6 mph 1029.2mb 51f 64f
3:00 2 6 mph 1029.3mb 51f 64f
2:54 3 7 mph 1029.3mb 51f 63f
2:48 3 6 mph 1029.3mb 51f 64f
2:36 3 6 mph 1029.4mb 51f 63f
2:30 2 6 mph 1029.4mb 51f 64f
2:24 3 6 mph 1029.4mb 51f 63f
2:18 2 5 mph 1029.5mb 51f 63f
2:12 3 6 mph 1029.7mb 51f 62f
2:06 3 6 mph 1029.8mb 51f 62f
2:00 2 5 mph 1029.8mb 51f 62f
1:54 5 6 mph 1029.8mb 51f 62f
1:48 6 8 mph 1029.8mb 51f 62f
1:36 5 8 mph 1029.9mb 51f 62f
1:30 3 6 mph 1030mb 51f 62f
1:24 3 5 mph 1030mb 51f 62f
1:18 3 5 mph 1030mb 51f 62f
1:12 5
mph
1029.9mb 51f 62f
1:06 5 6 mph 1029.9mb 51f 62f
1:00 5 6 mph 1029.9mb 51f 61f
12:54 5 6 mph 1030mb 51f 61f
12:48 5 6 mph 1030mb 51f 61f
12:36 5 7 mph 1030mb 51f 61f
12:30 6 8 mph 1030.1mb 51f 61f
12:24 5 8 mph 1030.2mb 51f 61f
12:18 6 7 mph 1030.3mb 51f 61f
12:12 5
mph
1030.3mb 51f 61f
12:06 3 5 mph 1030.3mb 51f 60f
12:00 1 5 mph 1030.3mb 51f 60f
11:54 3 6 mph 1030.4mb 51f 60f
11:48 2 6 mph 1030.3mb 51f 60f
11:36 2 5 mph 1030.3mb 51f 60f
11:30 3 5 mph 1030.2mb 51f 59f
11:24 2 5 mph 1030.2mb 51f 60f
11:18 2 3 mph 1030.2mb 51f 60f
11:12 2 5 mph 1030.2mb 51f 59f
11:06 1 3 mph 1030.3mb 51f 59f
11:00  -  3 mph 1030.3mb 51f 59f
10:54 1 5 mph 1030.2mb 51f 58f
10:48 3 5 mph 1030.1mb 52f 58f
10:36 3 6 mph 1030.3mb 52f 58f
10:30 2 6 mph 1030.3mb 52f 58f
10:24 5 6 mph 1030.2mb 52f 58f
10:18 5 7 mph 1030.2mb 52f 58f
10:12 5 6 mph 1030.2mb 52f 58f
10:06 2
mph
1030.3mb 52f 57f
10:00  -  2 mph 1030.4mb 52f 57f
9:54  -  2 mph 1030.4mb 52f 56f
9:48  -  2 mph 1030.3mb 52f 56f
9:36 1 3 mph 1030.3mb 52f 56f
9:30 2 5 mph 1030.2mb 52f 56f
9:24 2 6 mph 1030.1mb 52f 56f
9:18 2
mph
1030.2mb 52f 55f
9:12  -  1 mph 1030.1mb 52f 55f
9:06  -  mph 1030.1mb 52f 55f
9:00  -  2 mph 1030.1mb 52f 54f
8:36 2
mph
1030mb 52f 54f
8:30  -  1 mph 1029.9mb 52f 54f
8:24  -  2 mph 1029.8mb 52f 54f
8:18 1 3 mph 1029.9mb 52f 53f
8:12 2 3 mph 1029.9mb 52f 53f
8:06 2 3 mph 1029.7mb 52f 53f
8:00 1 2 mph 1029.7mb 52f 53f
7:54  -  3 mph 1029.6mb 52f 53f
7:48 2 3 mph 1029.6mb 52f 53f
7:36  -  3 mph 1029.5mb 52f 53f
7:30  -  1 mph 1029.5mb 52f 54f
7:24  -  1 mph 1029.5mb 52f 53f
7:18  -  1 mph 1029.4mb 52f 53f
7:12 1 2 mph 1029.3mb 52f 53f
7:06 1 3 mph 1029.4mb 52f 53f
7:00 1 3 mph 1029.4mb 52f 53f
6:54 2 3 mph 1029.3mb 52f 53f
6:48  -  1 mph 1029.1mb 52f 53f
6:36  -  1 mph 1029.2mb 52f 54f
6:30  -  1 mph 1029.2mb 52f 54f
6:24  -  2 mph 1029mb 52f 54f
6:18 1 3 mph 1029mb 52f 54f
6:12 3 6 mph 1029.1mb 52f 53f
6:06 2 6 mph 1029.2mb 52f 53f
6:00  -  1 mph 1029.2mb 52f 53f
5:54 2
mph
1029.1mb 52f 53f
5:48 2 3 mph 1029.1mb 52f 53f
5:36  -  1 mph 1028.9mb 52f 54f
5:30  -  1 mph 1029mb 52f 53f
5:24 1 2 mph 1029mb 52f 53f
5:18 1 2 mph 1029mb 52f 53f
5:12 1 5 mph 1029.1mb 52f 53f
5:06 3 5 mph 1029.1mb 52f 53f
5:00  -  2 mph 1029mb 52f 54f
4:54 2
mph
1029mb 52f 53f
4:48  -  2 mph 1029mb 52f 53f
4:36  -  1 mph 1029mb 52f 53f
4:30 1 3 mph 1028.9mb 52f 53f
4:24  -  1 mph 1028.8mb 52f 53f
4:18 1 3 mph 1028.8mb 52f 53f
4:12 2 3 mph 1029mb 52f 53f
4:06 1 2 mph 1029mb 52f 53f
4:00  -  mph 1028.9mb 52f 53f
3:54  -  1 mph 1028.9mb 52f 53f
3:48  -  2 mph 1028.8mb 52f 53f
3:36  -  3 mph 1029mb 52f 53f
3:30 3
mph
1028.9mb 52f 53f
3:24  -  3 mph 1028.9mb 52f 53f
3:18  -  1 mph 1029mb 52f 53f
3:12  -  1 mph 1029mb 52f 53f
3:06  -  2 mph 1029mb 52f 53f
3:00  -  1 mph 1029mb 52f 53f
2:54 1 2 mph 1029mb 52f 53f
2:48  -  1 mph 1029mb 52f 53f
2:36 1 2 mph 1029.2mb 52f 53f
2:30  -  2 mph 1029.3mb 52f 53f
2:24 1 2 mph 1029.3mb 52f 53f
2:18 1 2 mph 1029.2mb 52f 53f
2:12  -  1 mph 1029.2mb 52f 53f
2:06  -  3 mph 1029.3mb 52f 53f
2:00 1 2 mph 1029.3mb 52f 53f
1:54  -  2 mph 1029.3mb 52f 53f
1:48  -  1 mph 1029.5mb 52f 53f
1:36  -  2 mph 1029.5mb 52f 54f
1:30 1 2 mph 1029.5mb 52f 54f
1:24  -  5 mph 1029.4mb 52f 53f
1:18  -  2 mph 1029.4mb 52f 54f
1:12 1 3 mph 1029.3mb 52f 53f
1:06  -  3 mph 1029.2mb 52f 53f
1:00 2
mph
1029.3mb 52f 53f
12:54  -  1 mph 1029.3mb 52f 54f
12:48  -  2 mph 1029.4mb 52f 54f
12:36 2
mph
1029.3mb 52f 54f
12:30 2 3 mph 1029.4mb 52f 55f
12:24  -  2 mph 1029.5mb 52f 55f
12:18 1 5 mph 1029.5mb 52f 55f
12:12 2 3 mph 1029.5mb 52f 55f
12:06 1 2 mph 1029.5mb 52f 56f
12:00  -  2 mph 1029.6mb 52f 56f
sam. 09/24 11:54  -  2 mph 1029.5mb 52f 56f
11:48  -  2 mph 1029.5mb 52f 56f
11:36  -  3 mph 1029.4mb 52f 56f
11:30  -  7 mph 1029.5mb 52f 56f
11:24 2 6 mph 1029.4mb 52f 56f
11:18 2 6 mph 1029.4mb 52f 56f
11:12 2 6 mph 1029.3mb 52f 56f
11:06 3 7 mph 1029.2mb 52f 56f
11:00 1 6 mph 1029.2mb 52f 56f
10:54 2 5 mph 1029.2mb 52f 56f
10:48 2 7 mph 1029.2mb 52f 56f
10:36 2 6 mph 1029mb 52f 55f
10:30 1 3 mph 1029.1mb 52f 55f
10:24 1 2 mph 1029mb 52f 55f
10:18  -  2 mph 1029.1mb 52f 55f
10:12  -  3 mph 1029.1mb 52f 55f
10:06 2 5 mph 1029.1mb 52f 55f
10:00 1 5 mph 1029.1mb 52f 55f
9:54  -  2 mph 1029.1mb 52f 55f
9:48 2 5 mph 1029mb 52f 55f
9:36 1 3 mph 1028.9mb 52f 54f
9:30  -  2 mph 1028.9mb 52f 54f
9:24  -  2 mph 1028.8mb 52f 54f
9:18  -  2 mph 1028.9mb 52f 54f
9:12  -  2 mph 1028.7mb 52f 54f
9:06 2 5 mph 1028.9mb 52f 54f
9:00  -  2 mph 1028.7mb 52f 54f
8:54 1 2 mph 1028.7mb 52f 54f
8:48  -  2 mph 1028.6mb 52f 54f
8:36  -  2 mph 1028.7mb 52f 55f
8:30  -  2 mph 1028.6mb 52f 55f
8:24  -  3 mph 1028.4mb 52f 55f
8:18 1 5 mph 1028.4mb 52f 55f
8:12 2 5 mph 1028.4mb 52f 54f
8:06 1 3 mph 1028.3mb 52f 55f
8:00 2 7 mph 1028mb 52f 55f
7:54 6 7 mph 1027.7mb 52f 55f
7:48 2 3 mph 1028mb 52f 55f
7:36  -  1 mph 1027.7mb 52f 56f
7:30 1 3 mph 1027.7mb 52f 55f
7:24 5 6 mph 1027.9mb 52f 55f
7:18 3 6 mph 1027.5mb 52f 56f
7:12 1 3 mph 1027.4mb 52f 57f
7:06 1 3 mph 1027.4mb 52f 57f
7:00 3 5 mph 1027.4mb 52f 57f
6:54  -  mph 1027.4mb 52f 57f
6:48  -  1 mph 1027.4mb 52f 57f
6:36  -  mph 1027.6mb 52f 58f
6:30  -  1 mph 1027.5mb 52f 58f
6:24  -  1 mph 1027.6mb 52f 58f
6:18  -  1 mph 1027.7mb 52f 58f
6:12  -  2 mph 1027.6mb 52f 59f
6:06 1 2 mph 1027.6mb 52f 59f
6:00  -  2 mph 1027.7mb 52f 59f
5:54 1 2 mph 1027.5mb 52f 59f
5:48  -  1 mph 1027.6mb 52f 59f
5:36  -  1 mph 1027.6mb 52f 60f
5:30  -  1 mph 1027.6mb 52f 60f
5:24  -  1 mph 1027.4mb 52f 60f
5:18  -  3 mph 1027.5mb 52f 60f
5:12  -  2 mph 1027.7mb 52f 60f
5:06 2 5 mph 1027.7mb 52f 61f
5:00 3
mph
1027.6mb 52f 61f
4:54 3
mph
1027.7mb 52f 61f
4:48 3
mph
1027.6mb 52f 61f
4:36 1 2 mph 1027.8mb 52f 61f
4:30 2
mph
1027.7mb 52f 61f
4:24 2 3 mph 1027.8mb 52f 61f
4:18 2
mph
1027.7mb 52f 61f
4:12 1 2 mph 1027.7mb 52f 61f
4:06 2
mph
1027.5mb 52f 61f
4:00 2 3 mph 1027.9mb 51f 61f
3:36 3 5 mph 1027.7mb 51f 60f
3:30 5
mph
1027.8mb 51f 60f
3:24 3 5 mph 1027.8mb 51f 60f
3:18 3
mph
1027.7mb 51f 60f
3:12 2 3 mph 1027.8mb 51f 60f
3:06 3 5 mph 1027.9mb 51f 60f
3:00 3 5 mph 1028mb 51f 59f
2:54 3
mph
1028.1mb 51f 59f
2:48 3 5 mph 1028mb 51f 59f
2:36 2 3 mph 1028.2mb 51f 60f
2:30 2 3 mph 1028.2mb 51f 59f
2:24 3 6 mph 1028.2mb 51f 59f
2:18 6
mph
1028.3mb 51f 59f
2:12 5 6 mph 1028.1mb 51f 58f
2:06 5 6 mph 1028.4mb 51f 59f
2:00 5 6 mph 1028.8mb 51f 58f
1:54 5
mph
1028.6mb 51f 58f
1:48 5
mph
1028.7mb 51f 58f
1:36 3 5 mph 1029mb 51f 58f
1:30 3 6 mph 1029.2mb 51f 57f
1:24 2 5 mph 1029.3mb 51f 57f
1:18 3 5 mph 1029.3mb 51f 57f
1:12 2 5 mph 1029.2mb 51f 57f
1:06 3 6 mph 1029mb 51f 56f
1:00 3 6 mph 1028.8mb 51f 56f
12:54 5 6 mph 1028.7mb 51f 56f
12:48 3 5 mph 1028.7mb 51f 56f
12:36 2 3 mph 1029.1mb 51f 56f
12:30 1 2 mph 1029mb 51f 57f
12:24 2 3 mph 1029.4mb 51f 57f
12:18 2 3 mph 1029.3mb 51f 56f
12:12 2 5 mph 1029.3mb 51f 56f
12:06 2 3 mph 1029.5mb 51f 56f
12:00 2
mph
1029.6mb 51f 56f
11:54 2
mph
1029.6mb 51f 56f
11:48 2
mph
1029.6mb 51f 56f
11:36 2
mph
1029.6mb 51f 56f
11:30 2 3 mph 1029.5mb 51f 55f
11:24 2 5 mph 1029.6mb 51f 55f
11:18 2 3 mph 1029.7mb 51f 55f
11:12 2 3 mph 1029.5mb 51f 55f
11:06 2 3 mph 1029.4mb 51f 55f
11:00 2
mph
1029.6mb 51f 55f
10:54 2
mph
1029.5mb 51f 54f
10:48 1
mph
1029.3mb 51f 55f
10:36  -  1 mph 1029.2mb 51f 54f
10:30 1 2 mph 1029mb 51f 53f
10:24  -  mph 1029.4mb 51f 53f
10:18  -  2 mph 1029.3mb 51f 53f
10:12 2
mph
1029.2mb 51f 52f
10:06 2
mph
1028.9mb 51f 52f
10:00 3
mph
1028.7mb 51f 52f
9:54 3 5 mph 1028.5mb 51f 51f
9:48 3 5 mph 1028.5mb 51f 51f
9:36 2 3 mph 1028.7mb 51f 51f
9:30 2
mph
1028.7mb 51f 51f
9:24 2 3 mph 1028.6mb 52f 51f
9:18 3
mph
1028.2mb 52f 51f
9:12 1 2 mph 1028.3mb 52f 51f
9:06 1 2 mph 1028.3mb 52f 51f
9:00 2
mph
1028.3mb 52f 51f
8:54 2 3 mph 1028.3mb 52f 51f
8:48 2
mph
1028.2mb 52f 51f
8:36  -  mph 1028.1mb 52f 51f
8:30  -  1 mph 1027.9mb 52f 51f
8:24  -  1 mph 1028mb 52f 51f
8:18  -  1 mph 1028.1mb 52f 51f
8:12  -  1 mph 1028.1mb 52f 51f
8:06 1
mph
1028.1mb 52f 51f
8:00 1
mph
1028.1mb 52f 51f
7:54  -  1 mph 1028mb 52f 51f
7:48 1 2 mph 1027.9mb 52f 51f
7:36 2 3 mph 1027.7mb 52f 51f
7:30 1 2 mph 1027.5mb 52f 51f
7:24 1 2 mph 1027.5mb 52f 51f
7:18 1 2 mph 1027.4mb 52f 50f
7:12  -  1 mph 1027.3mb 52f 50f
7:06  -  2 mph 1027.2mb 52f 50f
7:00 1 2 mph 1027.1mb 52f 50f
6:54 1 2 mph 1027.1mb 52f 50f
6:48  -  1 mph 1027.1mb 52f 50f
6:36 1
mph
1027mb 52f 50f
6:30  -  1 mph 1027mb 52f 50f
6:24  -  mph 1026.9mb 52f 50f
6:18  -  mph 1026.8mb 52f 50f
6:12  -  2 mph 1026.6mb 52f 50f
6:06 1 2 mph 1026.6mb 52f 50f
6:00  -  1 mph 1026.5mb 52f 50f
5:54  -  1 mph 1026.5mb 52f 48f
5:48 1 5 mph 1026.4mb 52f 48f
5:36  -  2 mph 1026.4mb 52f 49f
5:30  -  3 mph 1026.3mb 52f 48f
5:24  -  2 mph 1026.1mb 52f 50f
5:18  -  2 mph 1025.9mb 52f 49f
5:12  -  2 mph 1025.9mb 52f 48f
5:06 1 2 mph 1025.9mb 52f 49f
5:00  -  2 mph 1025.9mb 52f 49f
4:54 1 2 mph 1025.9mb 52f 48f
4:48 1 3 mph 1025.8mb 52f 48f
4:36  -  2 mph 1025.7mb 52f 48f
4:30 1 2 mph 1025.7mb 52f 48f
4:24  -  mph 1025.7mb 52f 50f
4:18  -  1 mph 1025.5mb 52f 49f
4:12  -  2 mph 1025.4mb 52f 50f
4:06  -  3 mph 1025.4mb 52f 48f
4:00 3
mph
1025.4mb 52f 48f
3:54 1 3 mph 1025.4mb 52f 48f
3:48  -  1 mph 1025.2mb 52f 50f
3:36 2 3 mph 1025.3mb 52f 49f
3:30 2 3 mph 1025.2mb 52f 50f
3:24 1 5 mph 1025.2mb 52f 49f
3:18 5
mph
1025.1mb 52f 49f
3:12  -  2 mph 1025mb 52f 50f
3:06 2
mph
1024.9mb 52f 50f
3:00  -  1 mph 1024.9mb 52f 51f
2:54  -  1 mph 1025mb 52f 52f
2:48  -  1 mph 1024.7mb 52f 51f
2:36  -  mph 1024.5mb 52f 51f
2:30  -  1 mph 1024.6mb 52f 51f
2:24  -  2 mph 1024.5mb 52f 51f
2:18 2
mph
1024.5mb 52f 51f
2:12 1 2 mph 1024.6mb 52f 51f
2:06  -  1 mph 1024.6mb 52f 52f
2:00  -  1 mph 1024.6mb 52f 52f
1:54  -  1 mph 1024.6mb 52f 52f
1:48  -  1 mph 1024.3mb 52f 52f
1:36  -  1 mph 1024mb 52f 52f
1:30  -  mph 1023.9mb 52f 52f
1:24  -  1 mph 1023.8mb 52f 53f
1:18  -  1 mph 1023.8mb 52f 53f
1:12  -  1 mph 1023.8mb 52f 53f
1:06  -  1 mph 1023.8mb 52f 53f
1:00  -  2 mph 1023.8mb 52f 53f
12:54  -  2 mph 1023.7mb 52f 53f
12:48 1 2 mph 1023.6mb 52f 54f
12:36 2 3 mph 1023.3mb 52f 54f
12:30  -  3 mph 1023.1mb 52f 54f
12:24 2 5 mph 1023mb 52f 55f
12:18 2 3 mph 1022.9mb 52f 55f
12:12  -  1 mph 1022.8mb 52f 55f
12:06  -  2 mph 1022.8mb 52f 55f
12:00  -  5 mph 1022.7mb 52f 55f
ven. 09/23 11:54 1 5 mph 1022.7mb 52f 55f
11:48 2 3 mph 1022.9mb 52f 55f
11:36  -  5 mph 1022.7mb 52f 55f
11:30  -  2 mph 1022.5mb 52f 55f
11:24  -  2 mph 1022.3mb 52f 55f
11:18 1 2 mph 1022.1mb 52f 55f
11:12  -  5 mph 1022.1mb 52f 55f
11:06  -  2 mph 1022.1mb 52f 55f
11:00  -  2 mph 1022mb 52f 55f
10:54  -  3 mph 1022mb 52f 55f
10:48 1 2 mph 1022.1mb 52f 55f
10:36  -  2 mph 1021.8mb 52f 54f
10:30 1 2 mph 1021.7mb 52f 54f
10:24 1 2 mph 1021.6mb 52f 55f
10:18 2 5 mph 1021.5mb 52f 55f
10:12 1 6 mph 1021.4mb 52f 55f
10:06 2 6 mph 1021.5mb 52f 55f
10:00  -  3 mph 1021.2mb 52f 55f
9:54 2 3 mph 1021.1mb 52f 55f
9:48 2 5 mph 1021mb 52f 55f
9:36 5 7 mph 1020.9mb 52f 55f
9:30 6 7 mph 1020.8mb 52f 55f
9:24 7 10 mph 1020.8mb 52f 55f
9:18 9 10 mph 1020.7mb 52f 56f
9:12 8 9 mph 1020.6mb 52f 56f
9:06 3 6 mph 1020.5mb 52f 56f
9:00 3 6 mph 1020.4mb 52f 56f
8:54 1 5 mph 1020.2mb 52f 56f
8:48 1 2 mph 1020.1mb 52f 56f
8:36  -  1 mph 1019.7mb 52f 56f
8:30 1 2 mph 1019.6mb 52f 56f
8:24  -  1 mph 1019.5mb 52f 56f
8:18  -  1 mph 1019.4mb 52f 56f
8:12  -  1 mph 1019.1mb 52f 56f
8:06  -  1 mph 1019mb 52f 56f
8:00  -  1 mph 1019.1mb 52f 56f
7:54  -  mph 1018.7mb 52f 56f
7:48  -  mph 1018.6mb 52f 56f
7:36  -  1 mph 1018.5mb 52f 56f
7:30  -  1 mph 1018.6mb 52f 56f
7:24  -  2 mph 1018.4mb 52f 56f
7:18 1 2 mph 1018.4mb 52f 56f
7:12 1 2 mph 1018.3mb 52f 56f
7:06 1 3 mph 1018.3mb 52f 56f
7:00 2 3 mph 1018.1mb 52f 56f
6:54 2
mph
1018.1mb 52f 56f
6:48 2 3 mph 1018mb 52f 56f
6:36 2 3 mph 1017.7mb 52f 56f
6:30 1 2 mph 1017.6mb 52f 57f
6:24  -  3 mph 1017.6mb 52f 56f
6:18 2 5 mph 1017.3mb 52f 56f
6:12 5 6 mph 1017mb 52f 56f
6:06 3 5 mph 1017mb 52f 56f
6:00 3 6 mph 1017.1mb 52f 56f
5:54 2 6 mph 1017.1mb 52f 56f
5:48 3 7 mph 1016.9mb 52f 56f
5:36 6 7 mph 1016.7mb 52f 56f
5:30 5 7 mph 1016.7mb 52f 56f
5:24 3 6 mph 1016.7mb 52f 57f
5:18 5 7 mph 1016.7mb 52f 57f
5:12 5 8 mph 1016.6mb 52f 57f
5:06 6 8 mph 1016.7mb 52f 57f
5:00 5 6 mph 1016.7mb 52f 57f
4:54 3 6 mph 1016.6mb 52f 57f
4:48 2 5 mph 1016.7mb 52f 57f
4:36 5 8 mph 1016.5mb 52f 57f
4:30 6 8 mph 1016.3mb 52f 57f
4:24 6 7 mph 1016.3mb 52f 57f
4:18 6 8 mph 1016.2mb 52f 57f
4:12 7 9 mph 1016.2mb 52f 57f
4:06 7 11 mph 1016.2mb 52f 57f
4:00 7 11 mph 1016.1mb 52f 57f
3:54 7 10 mph 1016.1mb 52f 57f
3:48 6 9 mph 1015.9mb 52f 57f
3:36 6 8 mph 1015.7mb 52f 57f
3:30 6 10 mph 1015.5mb 52f 57f
3:24 8 13 mph 1015.5mb 52f 57f
3:18 6 11 mph 1015.4mb 52f 57f
3:12 8 10 mph 1015.3mb 52f 57f
3:06 6 15 mph 1015.2mb 52f 57f
3:00 11 16 mph 1015.2mb 52f 57f
2:36 8 18 mph 1014.9mb 51f 57f
2:30 9 17 mph 1014.8mb 51f 57f
2:24 8 15 mph 1014.8mb 51f 57f
2:18 10 15 mph 1014.8mb 51f 57f
2:12 8 17 mph 1014.8mb 51f 56f
2:06 14 17 mph 1014.6mb 51f 56f
2:00 11 17 mph 1014.7mb 51f 56f
1:54 11 16 mph 1014.7mb 51f 56f
1:48 11 17 mph 1014.6mb 51f 56f
1:36 14 20 mph 1014.6mb 51f 56f
1:30 9 20 mph 1014.6mb 51f 56f
1:24 9 16 mph 1014.6mb 51f 55f
1:18 10 20 mph 1014.4mb 51f 55f
1:12 13 18 mph 1014.5mb 51f 55f
1:06 10 21 mph 1014.6mb 51f 55f
1:00 11 17 mph 1014.6mb 51f 55f
12:54 13 21 mph 1014.6mb 51f 55f
12:48 11 28 mph 1014.6mb 51f 55f
12:36 9 18 mph 1014.7mb 51f 55f
12:30 9 20 mph 1014.5mb 51f 55f
12:24 13 18 mph 1014.5mb 51f 55f
12:18 10 18 mph 1014.4mb 51f 55f
12:12 8 15 mph 1014.2mb 51f 55f
12:06 11 21 mph 1014.3mb 51f 55f
12:00 13 22 mph 1014.1mb 51f 55f
11:54 14 23 mph 1014mb 51f 55f
11:48 16 25 mph 1014mb 51f 55f
11:36 14 21 mph 1013.9mb 51f 56f
11:30 14 21 mph 1014mb 51f 56f
11:24 8 16 mph 1014mb 51f 55f
11:18 9 18 mph 1014mb 51f 55f
11:12 13 18 mph 1014mb 51f 55f
11:06 13 18 mph 1014mb 51f 56f
11:00 13 21 mph 1013.9mb 51f 56f
10:54 9 16 mph 1013.8mb 51f 56f
10:48 11 18 mph 1013.7mb 51f 56f
10:36 9 20 mph 1013.6mb 51f 56f
10:30 14 20 mph 1013.6mb 51f 56f
10:24 11 20 mph 1013.5mb 51f 56f
10:18 11 20 mph 1013.5mb 51f 56f
10:12 14 20 mph 1013.5mb 51f 56f
10:06 14 20 mph 1013.5mb 51f 56f
10:00 14 18 mph 1013.5mb 51f 56f
9:54 13 18 mph 1013.5mb 51f 56f
9:48 13 22 mph 1013.6mb 51f 56f
9:36 13 17 mph 1013.6mb 51f 56f
9:30 13 18 mph 1013.6mb 51f 56f
9:24 14 17 mph 1013.6mb 51f 55f
9:18 14 20 mph 1013.7mb 51f 55f
9:12 11 18 mph 1013.6mb 51f 55f
9:06 13 17 mph 1013.9mb 51f 55f
9:00 13 16 mph 1014mb 51f 55f
8:54 13 18 mph 1014.1mb 51f 55f
8:48 11 17 mph 1014.2mb 51f 55f
8:36 9 14 mph 1014.2mb 51f 54f
8:30 9 13 mph 1014.2mb 51f 54f
8:24 7 9 mph 1014.3mb 51f 54f
8:18 3 6 mph 1014.4mb 51f 53f
8:12 5 8 mph 1014.4mb 51f 53f
8:06 3 5 mph 1014.5mb 51f 53f
8:00 5 6 mph 1014.6mb 51f 53f
7:54 3 5 mph 1014.8mb 52f 52f
7:48 2 5 mph 1014.9mb 52f 52f
7:36 3 6 mph 1015mb 52f 52f
7:30 5 6 mph - - 52f
7:24 5 6 mph 1014.9mb 52f 52f
7:18 3 5 mph 1014.9mb 52f 52f
7:12 5 9 mph 1014.9mb 52f 52f
7:06 7 9 mph - - 52f
7:00 8 9 mph 1015.3mb 52f 52f
6:36  -  mph 1015.8mb 52f -
6:30  -  mph 1015.9mb 52f -
6:24  -  mph 1015.9mb 52f -
6:18  -  mph 1016mb 52f -
6:12  -  mph 1016.1mb 52f -
6:06  -  mph 1016.2mb 52f -
6:00  -  mph 1016.3mb 52f -
5:54  -  mph 1016.3mb 52f -
5:48  -  mph 1016.3mb 52f -
5:36  -  mph 1016.5mb 52f -
5:30  -  mph 1016.5mb 52f -
5:24  -  mph 1016.5mb 52f -
5:18  -  mph 1016.5mb 52f -
5:12  -  mph 1016.5mb 52f -
5:06  -  mph 1016.5mb 52f -
5:00  -  mph 1016.6mb 52f -
4:54  -  mph 1016.6mb 52f -
4:48  -  mph 1016.7mb 52f -
4:36 2 3 mph 1016.8mb 52f 53f
4:30 3 6 mph 1017mb 52f 53f
4:24 5 6 mph 1017mb 52f 53f
4:18 5 6 mph 1017mb 52f 54f
4:12 3 5 mph 1016.8mb 52f 54f
4:06 2 5 mph 1016.9mb 52f 53f
4:00 2 5 mph 1016.9mb 52f 53f
3:54 3 6 mph 1016.8mb 52f 53f
3:48 3 7 mph 1016.7mb 52f 53f
3:36 2 5 mph 1017mb 52f 53f
3:30 3 6 mph 1017mb 52f 53f
3:24 3 5 mph 1017.1mb 52f 53f
3:18 5 6 mph 1017.1mb 52f 53f
3:12 3 8 mph 1017mb 52f 53f
3:06 5 6 mph 1017.1mb 52f 54f
3:00 5 6 mph 1017.2mb 52f 54f
2:54 3 5 mph 1017.2mb 52f 54f
2:48 2 5 mph 1017.1mb 52f 54f
2:36 3 5 mph 1017mb 52f 54f
2:30 2 6 mph 1017.1mb 52f 54f
2:24 5 7 mph 1017mb 52f 54f
2:18 5 6 mph 1017mb 52f 54f
2:12 5 7 mph 1017mb 52f 54f
2:06 3 6 mph 1017mb 52f 54f
2:00 5 6 mph 1017mb 52f 54f
1:54 3 6 mph 1017.1mb 52f 54f
1:48 3
mph
1017.1mb 52f 54f
1:36  -  mph 1017.1mb 52f -
1:30  -  mph 1017mb 52f -
1:24  -  mph 1017mb 52f -
1:18  -  mph 1017mb 52f -
1:12  -  mph 1017mb 52f -
1:06  -  mph 1017.2mb 52f -
1:00  -  mph 1017.3mb 52f -
12:48  -  mph 1017.2mb 52f -